sensor_id;sensor_type;location;lat;lon;timestamp;temperature;humidity
43524;DHT22;29120;52.006;6.020;2022-07-29T00:01:30;18.40;67.50
43524;DHT22;29120;52.006;6.020;2022-07-29T00:03:56;18.40;67.80
43524;DHT22;29120;52.006;6.020;2022-07-29T00:06:21;18.40;68.00
43524;DHT22;29120;52.006;6.020;2022-07-29T00:08:47;18.30;68.10
43524;DHT22;29120;52.006;6.020;2022-07-29T00:11:13;18.30;68.20
43524;DHT22;29120;52.006;6.020;2022-07-29T00:13:38;18.30;68.30
43524;DHT22;29120;52.006;6.020;2022-07-29T00:16:04;18.30;68.40
43524;DHT22;29120;52.006;6.020;2022-07-29T00:18:29;18.20;68.40
43524;DHT22;29120;52.006;6.020;2022-07-29T00:20:55;18.20;68.50
43524;DHT22;29120;52.006;6.020;2022-07-29T00:23:20;18.20;68.80
43524;DHT22;29120;52.006;6.020;2022-07-29T00:25:46;18.10;69.60
43524;DHT22;29120;52.006;6.020;2022-07-29T00:28:11;18.10;69.20
43524;DHT22;29120;52.006;6.020;2022-07-29T00:30:37;18.00;69.40
43524;DHT22;29120;52.006;6.020;2022-07-29T00:33:03;18.00;69.40
43524;DHT22;29120;52.006;6.020;2022-07-29T00:35:28;18.10;69.60
43524;DHT22;29120;52.006;6.020;2022-07-29T00:38:10;18.00;69.60
43524;DHT22;29120;52.006;6.020;2022-07-29T00:40:35;18.00;69.60
43524;DHT22;29120;52.006;6.020;2022-07-29T00:43:01;18.00;69.80
43524;DHT22;29120;52.006;6.020;2022-07-29T00:45:27;18.00;70.00
43524;DHT22;29120;52.006;6.020;2022-07-29T00:47:52;18.00;70.10
43524;DHT22;29120;52.006;6.020;2022-07-29T00:50:18;18.00;70.30
43524;DHT22;29120;52.006;6.020;2022-07-29T00:52:44;18.00;70.40
43524;DHT22;29120;52.006;6.020;2022-07-29T00:55:12;17.90;70.60
43524;DHT22;29120;52.006;6.020;2022-07-29T00:57:40;17.90;70.50
43524;DHT22;29120;52.006;6.020;2022-07-29T01:00:08;17.90;70.70
43524;DHT22;29120;52.006;6.020;2022-07-29T01:02:34;17.90;70.80
43524;DHT22;29120;52.006;6.020;2022-07-29T01:05:01;17.90;70.70
43524;DHT22;29120;52.006;6.020;2022-07-29T01:07:27;17.90;71.00
43524;DHT22;29120;52.006;6.020;2022-07-29T01:09:54;17.80;71.00
43524;DHT22;29120;52.006;6.020;2022-07-29T01:12:25;17.80;71.10
43524;DHT22;29120;52.006;6.020;2022-07-29T01:14:52;17.80;71.10
43524;DHT22;29120;52.006;6.020;2022-07-29T01:17:26;17.80;71.30
43524;DHT22;29120;52.006;6.020;2022-07-29T01:23:18;17.80;71.50
43524;DHT22;29120;52.006;6.020;2022-07-29T01:31:48;17.70;71.60
43524;DHT22;29120;52.006;6.020;2022-07-29T01:34:27;17.70;71.60
43524;DHT22;29120;52.006;6.020;2022-07-29T01:37:19;17.70;71.80
43524;DHT22;29120;52.006;6.020;2022-07-29T01:39:47;17.70;72.00
43524;DHT22;29120;52.006;6.020;2022-07-29T01:45:08;17.60;72.30
43524;DHT22;29120;52.006;6.020;2022-07-29T01:48:04;17.60;72.20
43524;DHT22;29120;52.006;6.020;2022-07-29T01:50:51;17.60;72.30
43524;DHT22;29120;52.006;6.020;2022-07-29T01:53:29;17.60;72.30
43524;DHT22;29120;52.006;6.020;2022-07-29T01:55:57;17.60;72.40
43524;DHT22;29120;52.006;6.020;2022-07-29T01:58:25;17.50;72.40
43524;DHT22;29120;52.006;6.020;2022-07-29T02:00:52;17.50;72.50
43524;DHT22;29120;52.006;6.020;2022-07-29T02:03:19;17.60;72.50
43524;DHT22;29120;52.006;6.020;2022-07-29T02:05:47;17.60;72.50
43524;DHT22;29120;52.006;6.020;2022-07-29T02:08:15;17.60;72.50
43524;DHT22;29120;52.006;6.020;2022-07-29T02:10:42;17.60;72.40
43524;DHT22;29120;52.006;6.020;2022-07-29T02:13:10;17.60;72.30
43524;DHT22;29120;52.006;6.020;2022-07-29T02:15:37;17.60;72.20
43524;DHT22;29120;52.006;6.020;2022-07-29T02:18:09;17.60;72.30
43524;DHT22;29120;52.006;6.020;2022-07-29T02:20:36;17.60;72.30
43524;DHT22;29120;52.006;6.020;2022-07-29T02:23:03;17.60;72.30
43524;DHT22;29120;52.006;6.020;2022-07-29T02:25:29;17.60;72.30
43524;DHT22;29120;52.006;6.020;2022-07-29T02:27:55;17.70;72.30
43524;DHT22;29120;52.006;6.020;2022-07-29T02:30:22;17.70;72.10
43524;DHT22;29120;52.006;6.020;2022-07-29T02:32:49;17.80;72.20
43524;DHT22;29120;52.006;6.020;2022-07-29T02:35:17;17.80;72.10
43524;DHT22;29120;52.006;6.020;2022-07-29T02:37:44;17.80;72.00
43524;DHT22;29120;52.006;6.020;2022-07-29T02:40:11;17.80;71.90
43524;DHT22;29120;52.006;6.020;2022-07-29T02:42:41;17.90;71.90
43524;DHT22;29120;52.006;6.020;2022-07-29T02:45:08;17.80;71.80
43524;DHT22;29120;52.006;6.020;2022-07-29T02:47:38;17.80;72.40
43524;DHT22;29120;52.006;6.020;2022-07-29T02:50:09;17.80;73.50
43524;DHT22;29120;52.006;6.020;2022-07-29T02:52:47;17.70;74.50
43524;DHT22;29120;52.006;6.020;2022-07-29T02:55:21;17.70;75.40
43524;DHT22;29120;52.006;6.020;2022-07-29T02:57:58;17.60;75.60
43524;DHT22;29120;52.006;6.020;2022-07-29T03:00:27;17.50;76.50
43524;DHT22;29120;52.006;6.020;2022-07-29T03:02:56;17.50;77.10
43524;DHT22;29120;52.006;6.020;2022-07-29T03:05:23;17.50;77.80
43524;DHT22;29120;52.006;6.020;2022-07-29T03:07:55;17.40;78.20
43524;DHT22;29120;52.006;6.020;2022-07-29T03:10:23;17.40;78.90
43524;DHT22;29120;52.006;6.020;2022-07-29T03:12:50;17.30;79.20
43524;DHT22;29120;52.006;6.020;2022-07-29T03:15:16;17.30;79.50
43524;DHT22;29120;52.006;6.020;2022-07-29T03:17:43;17.30;79.60
43524;DHT22;29120;52.006;6.020;2022-07-29T03:20:10;17.20;80.00
43524;DHT22;29120;52.006;6.020;2022-07-29T03:22:40;17.20;80.40
43524;DHT22;29120;52.006;6.020;2022-07-29T03:25:16;17.10;80.70
43524;DHT22;29120;52.006;6.020;2022-07-29T03:27:42;17.10;81.10
43524;DHT22;29120;52.006;6.020;2022-07-29T03:30:09;17.00;82.00
43524;DHT22;29120;52.006;6.020;2022-07-29T03:32:35;16.90;81.80
43524;DHT22;29120;52.006;6.020;2022-07-29T03:35:01;16.80;82.10
43524;DHT22;29120;52.006;6.020;2022-07-29T03:37:27;16.70;82.40
43524;DHT22;29120;52.006;6.020;2022-07-29T03:39:54;16.60;82.80
43524;DHT22;29120;52.006;6.020;2022-07-29T03:42:23;16.50;83.40
43524;DHT22;29120;52.006;6.020;2022-07-29T03:44:50;16.40;83.70
43524;DHT22;29120;52.006;6.020;2022-07-29T03:47:20;16.40;84.00
43524;DHT22;29120;52.006;6.020;2022-07-29T03:49:49;16.30;84.40
43524;DHT22;29120;52.006;6.020;2022-07-29T03:52:16;16.30;84.50
43524;DHT22;29120;52.006;6.020;2022-07-29T03:54:42;16.20;84.80
43524;DHT22;29120;52.006;6.020;2022-07-29T03:57:10;16.10;85.10
43524;DHT22;29120;52.006;6.020;2022-07-29T03:59:37;16.00;85.50
43524;DHT22;29120;52.006;6.020;2022-07-29T04:02:04;15.90;86.20
43524;DHT22;29120;52.006;6.020;2022-07-29T04:04:33;15.90;86.70
43524;DHT22;29120;52.006;6.020;2022-07-29T04:07:00;15.90;86.70
43524;DHT22;29120;52.006;6.020;2022-07-29T04:09:25;15.90;86.80
43524;DHT22;29120;52.006;6.020;2022-07-29T04:11:51;15.90;86.60
43524;DHT22;29120;52.006;6.020;2022-07-29T04:14:17;16.00;87.30
43524;DHT22;29120;52.006;6.020;2022-07-29T04:16:42;15.90;87.00
43524;DHT22;29120;52.006;6.020;2022-07-29T04:19:08;15.90;87.00
43524;DHT22;29120;52.006;6.020;2022-07-29T04:21:40;15.90;87.30
43524;DHT22;29120;52.006;6.020;2022-07-29T04:24:07;15.90;87.60
43524;DHT22;29120;52.006;6.020;2022-07-29T04:26:33;16.00;87.50
43524;DHT22;29120;52.006;6.020;2022-07-29T04:28:59;16.00;87.40
43524;DHT22;29120;52.006;6.020;2022-07-29T04:31:25;16.00;87.80
43524;DHT22;29120;52.006;6.020;2022-07-29T04:33:50;16.00;87.80
43524;DHT22;29120;52.006;6.020;2022-07-29T04:36:16;16.00;88.10
43524;DHT22;29120;52.006;6.020;2022-07-29T04:38:41;16.00;87.90
43524;DHT22;29120;52.006;6.020;2022-07-29T04:41:07;15.90;88.10
43524;DHT22;29120;52.006;6.020;2022-07-29T04:43:37;15.90;88.10
43524;DHT22;29120;52.006;6.020;2022-07-29T04:46:03;15.90;88.20
43524;DHT22;29120;52.006;6.020;2022-07-29T04:48:29;15.90;88.30
43524;DHT22;29120;52.006;6.020;2022-07-29T04:50:55;15.90;88.30
43524;DHT22;29120;52.006;6.020;2022-07-29T04:53:21;15.90;88.10
43524;DHT22;29120;52.006;6.020;2022-07-29T04:55:47;15.90;88.30
43524;DHT22;29120;52.006;6.020;2022-07-29T04:58:12;16.00;88.30
43524;DHT22;29120;52.006;6.020;2022-07-29T05:00:39;16.10;88.20
43524;DHT22;29120;52.006;6.020;2022-07-29T05:03:05;16.10;88.10
43524;DHT22;29120;52.006;6.020;2022-07-29T05:05:30;16.10;88.00
43524;DHT22;29120;52.006;6.020;2022-07-29T05:07:56;16.00;87.90
43524;DHT22;29120;52.006;6.020;2022-07-29T05:10:22;16.00;88.00
43524;DHT22;29120;52.006;6.020;2022-07-29T05:12:47;15.90;88.30
43524;DHT22;29120;52.006;6.020;2022-07-29T05:15:14;15.90;88.40
43524;DHT22;29120;52.006;6.020;2022-07-29T05:17:39;15.80;88.70
43524;DHT22;29120;52.006;6.020;2022-07-29T05:20:06;15.80;88.60
43524;DHT22;29120;52.006;6.020;2022-07-29T05:22:31;15.80;88.70
43524;DHT22;29120;52.006;6.020;2022-07-29T05:24:57;15.80;88.90
43524;DHT22;29120;52.006;6.020;2022-07-29T05:27:23;15.90;88.80
43524;DHT22;29120;52.006;6.020;2022-07-29T05:29:51;15.90;89.40
43524;DHT22;29120;52.006;6.020;2022-07-29T05:32:17;16.00;88.50
43524;DHT22;29120;52.006;6.020;2022-07-29T05:34:42;15.90;88.10
43524;DHT22;29120;52.006;6.020;2022-07-29T05:37:08;15.90;88.10
43524;DHT22;29120;52.006;6.020;2022-07-29T05:39:33;15.90;88.40
43524;DHT22;29120;52.006;6.020;2022-07-29T05:41:59;16.00;88.40
43524;DHT22;29120;52.006;6.020;2022-07-29T05:44:25;16.00;88.20
43524;DHT22;29120;52.006;6.020;2022-07-29T05:46:50;16.10;88.40
43524;DHT22;29120;52.006;6.020;2022-07-29T05:49:16;16.10;88.30
43524;DHT22;29120;52.006;6.020;2022-07-29T05:51:41;16.20;88.40
43524;DHT22;29120;52.006;6.020;2022-07-29T05:54:07;16.30;88.60
43524;DHT22;29120;52.006;6.020;2022-07-29T05:56:32;16.30;88.40
43524;DHT22;29120;52.006;6.020;2022-07-29T05:58:58;16.40;88.60
43524;DHT22;29120;52.006;6.020;2022-07-29T06:01:23;16.40;88.70
43524;DHT22;29120;52.006;6.020;2022-07-29T06:03:49;16.50;88.60
43524;DHT22;29120;52.006;6.020;2022-07-29T06:06:15;16.60;88.70
43524;DHT22;29120;52.006;6.020;2022-07-29T06:08:40;16.60;88.70
43524;DHT22;29120;52.006;6.020;2022-07-29T06:11:06;16.70;88.80
43524;DHT22;29120;52.006;6.020;2022-07-29T06:13:33;16.80;88.70
43524;DHT22;29120;52.006;6.020;2022-07-29T06:15:59;16.90;88.40
43524;DHT22;29120;52.006;6.020;2022-07-29T06:18:25;16.90;88.00
43524;DHT22;29120;52.006;6.020;2022-07-29T06:20:51;16.90;87.80
43524;DHT22;29120;52.006;6.020;2022-07-29T06:23:17;16.90;87.60
43524;DHT22;29120;52.006;6.020;2022-07-29T06:25:43;16.90;87.60
43524;DHT22;29120;52.006;6.020;2022-07-29T06:28:09;16.90;87.40
43524;DHT22;29120;52.006;6.020;2022-07-29T06:30:34;16.90;87.40
43524;DHT22;29120;52.006;6.020;2022-07-29T06:33:00;16.80;87.50
43524;DHT22;29120;52.006;6.020;2022-07-29T06:35:27;16.80;87.40
43524;DHT22;29120;52.006;6.020;2022-07-29T06:37:52;16.80;87.30
43524;DHT22;29120;52.006;6.020;2022-07-29T06:40:18;16.80;87.30
43524;DHT22;29120;52.006;6.020;2022-07-29T06:43:03;16.80;87.30
43524;DHT22;29120;52.006;6.020;2022-07-29T06:45:28;16.80;87.40
43524;DHT22;29120;52.006;6.020;2022-07-29T06:47:54;16.80;87.20
43524;DHT22;29120;52.006;6.020;2022-07-29T06:50:19;16.90;86.60
43524;DHT22;29120;52.006;6.020;2022-07-29T06:52:45;17.00;86.50
43524;DHT22;29120;52.006;6.020;2022-07-29T06:55:11;17.10;86.20
43524;DHT22;29120;52.006;6.020;2022-07-29T06:57:36;17.10;85.90
43524;DHT22;29120;52.006;6.020;2022-07-29T07:00:03;17.30;85.60
43524;DHT22;29120;52.006;6.020;2022-07-29T07:02:30;17.40;85.20
43524;DHT22;29120;52.006;6.020;2022-07-29T07:04:55;17.60;84.90
43524;DHT22;29120;52.006;6.020;2022-07-29T07:07:21;17.70;84.30
43524;DHT22;29120;52.006;6.020;2022-07-29T07:09:47;17.80;84.10
43524;DHT22;29120;52.006;6.020;2022-07-29T07:12:12;17.80;84.00
43524;DHT22;29120;52.006;6.020;2022-07-29T07:14:38;17.80;84.00
43524;DHT22;29120;52.006;6.020;2022-07-29T07:17:05;17.70;84.00
43524;DHT22;29120;52.006;6.020;2022-07-29T07:19:32;17.70;84.10
43524;DHT22;29120;52.006;6.020;2022-07-29T07:21:57;17.70;84.10
43524;DHT22;29120;52.006;6.020;2022-07-29T07:24:23;17.70;84.10
43524;DHT22;29120;52.006;6.020;2022-07-29T07:26:48;17.80;83.90
43524;DHT22;29120;52.006;6.020;2022-07-29T07:29:14;17.90;83.90
43524;DHT22;29120;52.006;6.020;2022-07-29T07:31:40;17.90;84.10
43524;DHT22;29120;52.006;6.020;2022-07-29T07:34:05;17.90;83.80
43524;DHT22;29120;52.006;6.020;2022-07-29T07:36:31;17.90;83.70
43524;DHT22;29120;52.006;6.020;2022-07-29T07:38:56;17.90;83.60
43524;DHT22;29120;52.006;6.020;2022-07-29T07:41:22;17.80;83.50
43524;DHT22;29120;52.006;6.020;2022-07-29T07:43:48;17.80;83.40
43524;DHT22;29120;52.006;6.020;2022-07-29T07:46:13;17.80;83.50
43524;DHT22;29120;52.006;6.020;2022-07-29T07:48:39;17.80;83.50
43524;DHT22;29120;52.006;6.020;2022-07-29T07:51:05;17.80;83.90
43524;DHT22;29120;52.006;6.020;2022-07-29T07:53:31;17.80;83.80
43524;DHT22;29120;52.006;6.020;2022-07-29T07:55:56;17.80;83.90
43524;DHT22;29120;52.006;6.020;2022-07-29T07:58:22;17.90;83.90
43524;DHT22;29120;52.006;6.020;2022-07-29T08:00:47;17.90;83.80
43524;DHT22;29120;52.006;6.020;2022-07-29T08:03:13;18.00;84.00
43524;DHT22;29120;52.006;6.020;2022-07-29T08:05:40;18.00;84.00
43524;DHT22;29120;52.006;6.020;2022-07-29T08:08:06;18.10;83.90
43524;DHT22;29120;52.006;6.020;2022-07-29T08:10:32;18.10;83.90
43524;DHT22;29120;52.006;6.020;2022-07-29T08:13:16;18.10;84.00
43524;DHT22;29120;52.006;6.020;2022-07-29T08:15:42;18.10;83.80
43524;DHT22;29120;52.006;6.020;2022-07-29T08:18:10;18.10;83.80
43524;DHT22;29120;52.006;6.020;2022-07-29T08:20:36;18.20;84.20
43524;DHT22;29120;52.006;6.020;2022-07-29T08:23:03;18.30;84.00
43524;DHT22;29120;52.006;6.020;2022-07-29T08:25:31;18.30;83.70
43524;DHT22;29120;52.006;6.020;2022-07-29T08:27:57;18.40;83.60
43524;DHT22;29120;52.006;6.020;2022-07-29T08:30:23;18.50;83.40
43524;DHT22;29120;52.006;6.020;2022-07-29T08:32:48;18.60;83.30
43524;DHT22;29120;52.006;6.020;2022-07-29T08:35:18;18.70;83.00
43524;DHT22;29120;52.006;6.020;2022-07-29T08:37:44;18.80;82.60
43524;DHT22;29120;52.006;6.020;2022-07-29T08:40:10;18.80;82.30
43524;DHT22;29120;52.006;6.020;2022-07-29T08:42:36;18.80;82.40
43524;DHT22;29120;52.006;6.020;2022-07-29T08:45:03;18.90;82.10
43524;DHT22;29120;52.006;6.020;2022-07-29T08:47:29;18.90;81.90
43524;DHT22;29120;52.006;6.020;2022-07-29T08:49:55;18.90;81.90
43524;DHT22;29120;52.006;6.020;2022-07-29T08:52:21;18.90;81.90
43524;DHT22;29120;52.006;6.020;2022-07-29T08:54:47;19.00;82.00
43524;DHT22;29120;52.006;6.020;2022-07-29T08:57:14;19.00;81.70
43524;DHT22;29120;52.006;6.020;2022-07-29T08:59:42;19.00;81.70
43524;DHT22;29120;52.006;6.020;2022-07-29T09:02:19;19.10;81.70
43524;DHT22;29120;52.006;6.020;2022-07-29T09:04:45;19.10;81.80
43524;DHT22;29120;52.006;6.020;2022-07-29T09:07:14;19.10;81.90
43524;DHT22;29120;52.006;6.020;2022-07-29T09:09:40;19.10;81.80
43524;DHT22;29120;52.006;6.020;2022-07-29T09:12:06;19.10;81.90
43524;DHT22;29120;52.006;6.020;2022-07-29T09:14:33;19.00;81.80
43524;DHT22;29120;52.006;6.020;2022-07-29T09:16:59;19.00;81.80
43524;DHT22;29120;52.006;6.020;2022-07-29T09:19:27;19.00;81.80
43524;DHT22;29120;52.006;6.020;2022-07-29T09:21:54;18.90;81.80
43524;DHT22;29120;52.006;6.020;2022-07-29T09:24:23;18.90;81.90
43524;DHT22;29120;52.006;6.020;2022-07-29T09:26:48;18.90;81.80
43524;DHT22;29120;52.006;6.020;2022-07-29T09:29:16;19.00;81.90
43524;DHT22;29120;52.006;6.020;2022-07-29T09:31:44;19.00;81.80
43524;DHT22;29120;52.006;6.020;2022-07-29T09:34:11;19.10;81.80
43524;DHT22;29120;52.006;6.020;2022-07-29T09:36:42;19.10;81.70
43524;DHT22;29120;52.006;6.020;2022-07-29T09:39:08;19.20;81.40
43524;DHT22;29120;52.006;6.020;2022-07-29T09:41:51;19.30;81.20
43524;DHT22;29120;52.006;6.020;2022-07-29T09:44:23;19.40;81.10
43524;DHT22;29120;52.006;6.020;2022-07-29T09:47:00;19.50;80.90
43524;DHT22;29120;52.006;6.020;2022-07-29T09:49:32;19.50;80.80
43524;DHT22;29120;52.006;6.020;2022-07-29T09:52:04;19.60;80.90
43524;DHT22;29120;52.006;6.020;2022-07-29T09:54:30;19.50;80.90
43524;DHT22;29120;52.006;6.020;2022-07-29T09:57:06;19.60;81.00
43524;DHT22;29120;52.006;6.020;2022-07-29T09:59:32;19.60;81.00
43524;DHT22;29120;52.006;6.020;2022-07-29T10:01:58;19.60;81.00
43524;DHT22;29120;52.006;6.020;2022-07-29T10:04:37;19.80;81.00
43524;DHT22;29120;52.006;6.020;2022-07-29T10:07:03;20.00;80.90
43524;DHT22;29120;52.006;6.020;2022-07-29T10:09:31;20.20;80.50
43524;DHT22;29120;52.006;6.020;2022-07-29T10:14:32;20.60;79.50
43524;DHT22;29120;52.006;6.020;2022-07-29T10:17:02;20.80;78.80
43524;DHT22;29120;52.006;6.020;2022-07-29T10:19:30;21.00;77.80
43524;DHT22;29120;52.006;6.020;2022-07-29T10:22:01;21.40;77.20
43524;DHT22;29120;52.006;6.020;2022-07-29T10:24:28;21.80;76.50
43524;DHT22;29120;52.006;6.020;2022-07-29T10:26:59;22.10;75.40
43524;DHT22;29120;52.006;6.020;2022-07-29T10:29:25;22.50;74.80
43524;DHT22;29120;52.006;6.020;2022-07-29T10:32:10;23.10;73.40
43524;DHT22;29120;52.006;6.020;2022-07-29T10:35:04;24.10;71.00
43524;DHT22;29120;52.006;6.020;2022-07-29T10:43:18;27.70;63.60
43524;DHT22;29120;52.006;6.020;2022-07-29T10:45:46;28.70;61.10
43524;DHT22;29120;52.006;6.020;2022-07-29T10:48:12;29.40;59.10
43524;DHT22;29120;52.006;6.020;2022-07-29T10:51:01;30.00;58.40
43524;DHT22;29120;52.006;6.020;2022-07-29T10:53:50;30.50;56.50
43524;DHT22;29120;52.006;6.020;2022-07-29T10:56:27;30.90;55.60
43524;DHT22;29120;52.006;6.020;2022-07-29T11:01:48;31.40;53.60
43524;DHT22;29120;52.006;6.020;2022-07-29T11:04:15;31.60;53.20
43524;DHT22;29120;52.006;6.020;2022-07-29T11:07:06;31.80;52.70
43524;DHT22;29120;52.006;6.020;2022-07-29T11:09:33;31.80;52.00
43524;DHT22;29120;52.006;6.020;2022-07-29T11:11:58;31.60;52.10
43524;DHT22;29120;52.006;6.020;2022-07-29T11:14:58;31.50;51.70
43524;DHT22;29120;52.006;6.020;2022-07-29T11:17:26;31.50;51.40
43524;DHT22;29120;52.006;6.020;2022-07-29T11:19:51;31.50;51.70
43524;DHT22;29120;52.006;6.020;2022-07-29T11:22:36;31.50;51.50
43524;DHT22;29120;52.006;6.020;2022-07-29T11:25:16;31.40;52.10
43524;DHT22;29120;52.006;6.020;2022-07-29T11:27:42;31.20;51.40
43524;DHT22;29120;52.006;6.020;2022-07-29T11:30:08;31.20;51.20
43524;DHT22;29120;52.006;6.020;2022-07-29T11:32:39;31.20;50.90
43524;DHT22;29120;52.006;6.020;2022-07-29T11:35:19;31.10;50.40
43524;DHT22;29120;52.006;6.020;2022-07-29T11:38:22;30.70;50.30
43524;DHT22;29120;52.006;6.020;2022-07-29T11:40:32;30.50;50.40
43524;DHT22;29120;52.006;6.020;2022-07-29T11:42:58;30.30;50.60
43524;DHT22;29120;52.006;6.020;2022-07-29T11:45:25;30.30;50.50
43524;DHT22;29120;52.006;6.020;2022-07-29T11:47:57;30.20;50.40
43524;DHT22;29120;52.006;6.020;2022-07-29T11:52:54;29.90;50.90
43524;DHT22;29120;52.006;6.020;2022-07-29T11:55:21;30.00;51.00
43524;DHT22;29120;52.006;6.020;2022-07-29T11:57:52;29.70;50.90
43524;DHT22;29120;52.006;6.020;2022-07-29T12:00:28;29.40;51.30
43524;DHT22;29120;52.006;6.020;2022-07-29T12:02:54;29.10;51.50
43524;DHT22;29120;52.006;6.020;2022-07-29T12:05:20;28.80;51.90
43524;DHT22;29120;52.006;6.020;2022-07-29T12:07:47;28.70;52.00
43524;DHT22;29120;52.006;6.020;2022-07-29T12:10:12;28.70;52.00
43524;DHT22;29120;52.006;6.020;2022-07-29T12:12:38;29.20;51.70
43524;DHT22;29120;52.006;6.020;2022-07-29T12:15:24;29.90;51.20
43524;DHT22;29120;52.006;6.020;2022-07-29T12:17:51;30.80;50.00
43524;DHT22;29120;52.006;6.020;2022-07-29T12:22:49;32.10;48.50
43524;DHT22;29120;52.006;6.020;2022-07-29T12:25:15;32.60;47.50
43524;DHT22;29120;52.006;6.020;2022-07-29T12:27:42;33.20;47.10
43524;DHT22;29120;52.006;6.020;2022-07-29T12:30:14;33.50;46.40
43524;DHT22;29120;52.006;6.020;2022-07-29T12:32:43;33.40;46.00
43524;DHT22;29120;52.006;6.020;2022-07-29T12:35:15;33.20;46.10
43524;DHT22;29120;52.006;6.020;2022-07-29T12:37:42;33.50;45.70
43524;DHT22;29120;52.006;6.020;2022-07-29T12:40:10;33.70;45.30
43524;DHT22;29120;52.006;6.020;2022-07-29T12:42:36;33.60;44.90
43524;DHT22;29120;52.006;6.020;2022-07-29T12:45:03;33.10;45.20
43524;DHT22;29120;52.006;6.020;2022-07-29T12:47:28;32.80;45.30
43524;DHT22;29120;52.006;6.020;2022-07-29T12:50:12;32.90;45.10
43524;DHT22;29120;52.006;6.020;2022-07-29T12:52:40;33.10;44.80
43524;DHT22;29120;52.006;6.020;2022-07-29T12:55:06;33.20;44.60
43524;DHT22;29120;52.006;6.020;2022-07-29T12:57:44;33.50;44.50
43524;DHT22;29120;52.006;6.020;2022-07-29T13:00:12;33.90;44.20
43524;DHT22;29120;52.006;6.020;2022-07-29T13:02:40;34.20;43.80
43524;DHT22;29120;52.006;6.020;2022-07-29T13:05:07;34.50;43.50
43524;DHT22;29120;52.006;6.020;2022-07-29T13:07:34;34.60;42.70
43524;DHT22;29120;52.006;6.020;2022-07-29T13:10:17;34.90;42.30
43524;DHT22;29120;52.006;6.020;2022-07-29T13:15:27;34.50;42.50
43524;DHT22;29120;52.006;6.020;2022-07-29T13:17:52;34.60;42.00
43524;DHT22;29120;52.006;6.020;2022-07-29T13:20:18;34.70;41.90
43524;DHT22;29120;52.006;6.020;2022-07-29T13:22:47;34.80;41.40
43524;DHT22;29120;52.006;6.020;2022-07-29T13:25:13;34.90;41.10
43524;DHT22;29120;52.006;6.020;2022-07-29T13:27:39;35.10;40.70
43524;DHT22;29120;52.006;6.020;2022-07-29T13:30:09;35.10;40.90
43524;DHT22;29120;52.006;6.020;2022-07-29T13:32:35;35.40;40.70
43524;DHT22;29120;52.006;6.020;2022-07-29T13:35:05;35.40;40.60
43524;DHT22;29120;52.006;6.020;2022-07-29T13:37:32;35.40;40.60
43524;DHT22;29120;52.006;6.020;2022-07-29T13:39:59;35.60;40.30
43524;DHT22;29120;52.006;6.020;2022-07-29T13:42:26;35.70;40.10
43524;DHT22;29120;52.006;6.020;2022-07-29T13:44:52;35.60;39.80
43524;DHT22;29120;52.006;6.020;2022-07-29T13:47:18;35.50;39.90
43524;DHT22;29120;52.006;6.020;2022-07-29T13:49:44;35.40;39.80
43524;DHT22;29120;52.006;6.020;2022-07-29T13:52:10;35.40;39.80
43524;DHT22;29120;52.006;6.020;2022-07-29T13:54:36;35.40;39.90
43524;DHT22;29120;52.006;6.020;2022-07-29T13:57:03;35.30;39.40
43524;DHT22;29120;52.006;6.020;2022-07-29T13:59:29;35.20;39.90
43524;DHT22;29120;52.006;6.020;2022-07-29T14:01:54;35.30;39.80
43524;DHT22;29120;52.006;6.020;2022-07-29T14:04:20;35.40;39.60
43524;DHT22;29120;52.006;6.020;2022-07-29T14:06:47;35.30;38.90
43524;DHT22;29120;52.006;6.020;2022-07-29T14:09:12;35.10;39.30
43524;DHT22;29120;52.006;6.020;2022-07-29T14:11:38;34.70;38.60
43524;DHT22;29120;52.006;6.020;2022-07-29T14:14:04;34.30;39.30
43524;DHT22;29120;52.006;6.020;2022-07-29T14:16:29;34.00;39.70
43524;DHT22;29120;52.006;6.020;2022-07-29T14:18:55;34.00;40.00
43524;DHT22;29120;52.006;6.020;2022-07-29T14:21:20;34.00;40.40
43524;DHT22;29120;52.006;6.020;2022-07-29T14:23:46;33.90;40.30
43524;DHT22;29120;52.006;6.020;2022-07-29T14:26:11;33.90;40.50
43524;DHT22;29120;52.006;6.020;2022-07-29T14:28:40;34.00;40.50
43524;DHT22;29120;52.006;6.020;2022-07-29T14:31:05;33.90;39.90
43524;DHT22;29120;52.006;6.020;2022-07-29T14:33:31;33.70;40.00
43524;DHT22;29120;52.006;6.020;2022-07-29T14:35:57;33.60;40.00
43524;DHT22;29120;52.006;6.020;2022-07-29T14:38:22;33.40;40.20
43524;DHT22;29120;52.006;6.020;2022-07-29T14:40:48;33.10;39.40
43524;DHT22;29120;52.006;6.020;2022-07-29T14:43:14;32.50;39.90
43524;DHT22;29120;52.006;6.020;2022-07-29T14:45:40;32.30;40.70
43524;DHT22;29120;52.006;6.020;2022-07-29T14:48:06;32.20;41.00
43524;DHT22;29120;52.006;6.020;2022-07-29T14:50:31;32.00;40.90
43524;DHT22;29120;52.006;6.020;2022-07-29T14:52:57;31.80;41.80
43524;DHT22;29120;52.006;6.020;2022-07-29T14:55:23;31.50;41.80
43524;DHT22;29120;52.006;6.020;2022-07-29T14:57:48;31.10;42.00
43524;DHT22;29120;52.006;6.020;2022-07-29T15:00:16;30.60;42.60
43524;DHT22;29120;52.006;6.020;2022-07-29T15:02:41;30.30;42.80
43524;DHT22;29120;52.006;6.020;2022-07-29T15:05:08;29.90;43.30
43524;DHT22;29120;52.006;6.020;2022-07-29T15:07:33;29.50;43.80
43524;DHT22;29120;52.006;6.020;2022-07-29T15:09:59;29.20;44.20
43524;DHT22;29120;52.006;6.020;2022-07-29T15:12:24;29.10;45.10
43524;DHT22;29120;52.006;6.020;2022-07-29T15:14:50;28.90;45.40
43524;DHT22;29120;52.006;6.020;2022-07-29T15:17:15;28.90;45.60
43524;DHT22;29120;52.006;6.020;2022-07-29T15:19:41;28.90;46.30
43524;DHT22;29120;52.006;6.020;2022-07-29T15:22:06;28.80;46.40
43524;DHT22;29120;52.006;6.020;2022-07-29T15:24:32;28.70;46.70
43524;DHT22;29120;52.006;6.020;2022-07-29T15:26:58;28.60;47.00
43524;DHT22;29120;52.006;6.020;2022-07-29T15:29:23;28.50;47.60
43524;DHT22;29120;52.006;6.020;2022-07-29T15:31:49;28.50;48.10
43524;DHT22;29120;52.006;6.020;2022-07-29T15:34:14;28.40;48.20
43524;DHT22;29120;52.006;6.020;2022-07-29T15:36:41;28.30;48.40
43524;DHT22;29120;52.006;6.020;2022-07-29T15:39:06;28.20;48.50
43524;DHT22;29120;52.006;6.020;2022-07-29T15:41:34;28.20;49.20
43524;DHT22;29120;52.006;6.020;2022-07-29T15:44:00;28.10;49.20
43524;DHT22;29120;52.006;6.020;2022-07-29T15:46:25;28.00;49.80
43524;DHT22;29120;52.006;6.020;2022-07-29T15:49:09;27.90;49.70
43524;DHT22;29120;52.006;6.020;2022-07-29T15:51:35;27.80;49.80
43524;DHT22;29120;52.006;6.020;2022-07-29T15:54:02;27.80;50.40
43524;DHT22;29120;52.006;6.020;2022-07-29T15:56:28;27.80;50.60
43524;DHT22;29120;52.006;6.020;2022-07-29T15:58:54;27.70;50.80
43524;DHT22;29120;52.006;6.020;2022-07-29T16:01:19;27.70;51.10
43524;DHT22;29120;52.006;6.020;2022-07-29T16:03:45;27.60;51.40
43524;DHT22;29120;52.006;6.020;2022-07-29T16:06:13;27.60;52.30